sensor_id;sensor_type;location;lat;lon;timestamp;P1;durP1;ratioP1;P2;durP2;ratioP2
39344;SDS011;25061;51.954;6.996;2023-05-07T05:30:12;23.80;;;16.45;;
39344;SDS011;25061;51.954;6.996;2023-05-07T05:32:38;23.02;;;16.15;;
39344;SDS011;25061;51.954;6.996;2023-05-07T05:35:03;24.77;;;16.52;;
39344;SDS011;25061;51.954;6.996;2023-05-07T05:37:29;26.75;;;17.25;;
39344;SDS011;25061;51.954;6.996;2023-05-07T05:39:56;21.58;;;15.95;;
39344;SDS011;25061;51.954;6.996;2023-05-07T05:42:22;22.88;;;15.48;;
39344;SDS011;25061;51.954;6.996;2023-05-07T05:44:48;22.27;;;15.90;;
39344;SDS011;25061;51.954;6.996;2023-05-07T05:47:14;23.10;;;15.55;;
39344;SDS011;25061;51.954;6.996;2023-05-07T05:49:39;20.92;;;14.60;;
39344;SDS011;25061;51.954;6.996;2023-05-07T05:52:05;22.88;;;16.15;;
39344;SDS011;25061;51.954;6.996;2023-05-07T05:54:32;23.20;;;16.20;;
39344;SDS011;25061;51.954;6.996;2023-05-07T05:56:57;23.25;;;16.08;;
39344;SDS011;25061;51.954;6.996;2023-05-07T05:59:23;21.13;;;15.07;;
39344;SDS011;25061;51.954;6.996;2023-05-07T06:01:49;22.20;;;15.00;;
39344;SDS011;25061;51.954;6.996;2023-05-07T06:04:15;21.00;;;15.35;;
39344;SDS011;25061;51.954;6.996;2023-05-07T06:06:41;24.25;;;16.00;;
39344;SDS011;25061;51.954;6.996;2023-05-07T06:09:06;23.65;;;15.73;;
39344;SDS011;25061;51.954;6.996;2023-05-07T06:11:32;19.85;;;14.35;;
39344;SDS011;25061;51.954;6.996;2023-05-07T06:13:58;20.35;;;15.02;;
39344;SDS011;25061;51.954;6.996;2023-05-07T06:16:24;20.65;;;14.98;;
39344;SDS011;25061;51.954;6.996;2023-05-07T06:18:50;22.30;;;15.05;;
39344;SDS011;25061;51.954;6.996;2023-05-07T06:21:16;21.75;;;14.52;;
39344;SDS011;25061;51.954;6.996;2023-05-07T06:23:41;22.50;;;14.55;;
39344;SDS011;25061;51.954;6.996;2023-05-07T06:26:07;22.85;;;14.20;;
39344;SDS011;25061;51.954;6.996;2023-05-07T06:28:33;21.80;;;13.75;;
39344;SDS011;25061;51.954;6.996;2023-05-07T06:31:18;20.10;;;13.95;;
39344;SDS011;25061;51.954;6.996;2023-05-07T06:33:47;20.25;;;13.95;;
39344;SDS011;25061;51.954;6.996;2023-05-07T06:36:14;20.05;;;14.23;;
39344;SDS011;25061;51.954;6.996;2023-05-07T06:38:39;21.90;;;13.45;;
39344;SDS011;25061;51.954;6.996;2023-05-07T06:41:05;20.23;;;14.10;;
39344;SDS011;25061;51.954;6.996;2023-05-07T06:43:31;18.48;;;13.73;;
39344;SDS011;25061;51.954;6.996;2023-05-07T06:45:58;21.20;;;13.00;;
39344;SDS011;25061;51.954;6.996;2023-05-07T06:48:24;17.23;;;12.38;;
39344;SDS011;25061;51.954;6.996;2023-05-07T06:50:49;17.60;;;11.90;;
39344;SDS011;25061;51.954;6.996;2023-05-07T06:53:15;20.63;;;12.57;;
39344;SDS011;25061;51.954;6.996;2023-05-07T06:55:41;17.33;;;13.15;;
39344;SDS011;25061;51.954;6.996;2023-05-07T06:58:07;18.83;;;12.95;;
39344;SDS011;25061;51.954;6.996;2023-05-07T07:00:33;19.73;;;13.45;;
39344;SDS011;25061;51.954;6.996;2023-05-07T07:02:58;20.17;;;12.75;;
39344;SDS011;25061;51.954;6.996;2023-05-07T07:05:25;17.77;;;12.30;;
39344;SDS011;25061;51.954;6.996;2023-05-07T07:07:51;18.23;;;12.68;;
39344;SDS011;25061;51.954;6.996;2023-05-07T07:10:20;16.08;;;11.73;;
39344;SDS011;25061;51.954;6.996;2023-05-07T07:12:46;17.45;;;12.07;;
39344;SDS011;25061;51.954;6.996;2023-05-07T07:15:13;20.50;;;12.05;;
39344;SDS011;25061;51.954;6.996;2023-05-07T07:17:40;17.98;;;12.20;;
39344;SDS011;25061;51.954;6.996;2023-05-07T07:20:06;16.80;;;12.02;;
39344;SDS011;25061;51.954;6.996;2023-05-07T07:22:32;17.73;;;12.10;;
39344;SDS011;25061;51.954;6.996;2023-05-07T07:24:57;18.13;;;11.27;;
39344;SDS011;25061;51.954;6.996;2023-05-07T07:27:23;16.35;;;11.70;;
39344;SDS011;25061;51.954;6.996;2023-05-07T07:29:48;18.85;;;12.68;;
39344;SDS011;25061;51.954;6.996;2023-05-07T07:32:14;20.52;;;12.73;;
39344;SDS011;25061;51.954;6.996;2023-05-07T07:34:40;16.77;;;12.23;;
39344;SDS011;25061;51.954;6.996;2023-05-07T07:37:05;18.40;;;12.10;;
39344;SDS011;25061;51.954;6.996;2023-05-07T07:39:31;17.73;;;11.90;;
39344;SDS011;25061;51.954;6.996;2023-05-07T07:41:58;16.92;;;11.60;;
39344;SDS011;25061;51.954;6.996;2023-05-07T07:44:23;17.02;;;12.07;;
39344;SDS011;25061;51.954;6.996;2023-05-07T07:46:49;17.40;;;12.48;;
39344;SDS011;25061;51.954;6.996;2023-05-07T07:49:15;18.65;;;12.68;;
39344;SDS011;25061;51.954;6.996;2023-05-07T07:51:42;20.10;;;11.75;;
39344;SDS011;25061;51.954;6.996;2023-05-07T07:54:08;15.05;;;10.70;;
39344;SDS011;25061;51.954;6.996;2023-05-07T07:56:34;15.98;;;11.63;;
39344;SDS011;25061;51.954;6.996;2023-05-07T07:59:00;14.35;;;10.32;;
39344;SDS011;25061;51.954;6.996;2023-05-07T08:01:26;17.95;;;11.82;;
39344;SDS011;25061;51.954;6.996;2023-05-07T08:03:53;17.15;;;11.57;;
39344;SDS011;25061;51.954;6.996;2023-05-07T08:06:19;17.63;;;12.32;;
39344;SDS011;25061;51.954;6.996;2023-05-07T08:08:44;17.65;;;12.05;;
39344;SDS011;25061;51.954;6.996;2023-05-07T08:11:10;19.60;;;12.68;;
39344;SDS011;25061;51.954;6.996;2023-05-07T08:13:36;18.45;;;12.90;;
39344;SDS011;25061;51.954;6.996;2023-05-07T08:16:03;18.98;;;12.93;;
39344;SDS011;25061;51.954;6.996;2023-05-07T08:18:29;16.67;;;11.23;;
39344;SDS011;25061;51.954;6.996;2023-05-07T08:20:54;15.13;;;10.98;;
39344;SDS011;25061;51.954;6.996;2023-05-07T08:23:20;17.15;;;12.25;;
39344;SDS011;25061;51.954;6.996;2023-05-07T08:25:47;17.45;;;12.55;;
39344;SDS011;25061;51.954;6.996;2023-05-07T08:28:13;17.55;;;12.02;;
39344;SDS011;25061;51.954;6.996;2023-05-07T08:30:38;19.88;;;12.68;;
39344;SDS011;25061;51.954;6.996;2023-05-07T08:33:04;15.75;;;11.70;;
39344;SDS011;25061;51.954;6.996;2023-05-07T08:35:30;17.02;;;13.15;;
39344;SDS011;25061;51.954;6.996;2023-05-07T08:37:55;17.08;;;12.57;;
39344;SDS011;25061;51.954;6.996;2023-05-07T08:40:22;16.83;;;11.88;;
39344;SDS011;25061;51.954;6.996;2023-05-07T08:42:52;18.80;;;12.02;;
39344;SDS011;25061;51.954;6.996;2023-05-07T08:45:19;18.27;;;13.00;;
39344;SDS011;25061;51.954;6.996;2023-05-07T08:47:52;16.58;;;11.63;;
39344;SDS011;25061;51.954;6.996;2023-05-07T08:50:27;17.23;;;11.88;;
39344;SDS011;25061;51.954;6.996;2023-05-07T08:52:53;15.98;;;11.57;;
39344;SDS011;25061;51.954;6.996;2023-05-07T08:55:18;18.20;;;11.75;;
39344;SDS011;25061;51.954;6.996;2023-05-07T08:57:45;18.15;;;12.25;;
39344;SDS011;25061;51.954;6.996;2023-05-07T09:00:12;17.17;;;11.40;;
39344;SDS011;25061;51.954;6.996;2023-05-07T09:02:38;14.68;;;10.80;;
39344;SDS011;25061;51.954;6.996;2023-05-07T09:05:04;16.10;;;11.40;;
39344;SDS011;25061;51.954;6.996;2023-05-07T09:07:30;16.95;;;11.80;;
39344;SDS011;25061;51.954;6.996;2023-05-07T09:09:56;17.75;;;12.45;;
39344;SDS011;25061;51.954;6.996;2023-05-07T09:12:22;16.00;;;10.98;;
39344;SDS011;25061;51.954;6.996;2023-05-07T09:14:48;16.40;;;11.82;;
39344;SDS011;25061;51.954;6.996;2023-05-07T09:17:15;16.58;;;11.80;;
39344;SDS011;25061;51.954;6.996;2023-05-07T09:19:41;17.52;;;11.38;;
39344;SDS011;25061;51.954;6.996;2023-05-07T09:22:11;18.52;;;12.00;;
39344;SDS011;25061;51.954;6.996;2023-05-07T09:24:37;17.50;;;11.43;;
39344;SDS011;25061;51.954;6.996;2023-05-07T09:27:04;17.80;;;11.48;;
39344;SDS011;25061;51.954;6.996;2023-05-07T09:29:30;15.40;;;10.70;;
39344;SDS011;25061;51.954;6.996;2023-05-07T09:32:06;17.35;;;11.68;;
39344;SDS011;25061;51.954;6.996;2023-05-07T09:34:33;18.10;;;11.85;;
39344;SDS011;25061;51.954;6.996;2023-05-07T09:37:03;16.92;;;12.82;;
39344;SDS011;25061;51.954;6.996;2023-05-07T09:39:42;18.05;;;11.15;;
39344;SDS011;25061;51.954;6.996;2023-05-07T09:42:09;16.02;;;11.15;;
39344;SDS011;25061;51.954;6.996;2023-05-07T09:44:36;17.02;;;11.77;;
39344;SDS011;25061;51.954;6.996;2023-05-07T09:47:04;16.85;;;12.07;;
39344;SDS011;25061;51.954;6.996;2023-05-07T09:49:33;15.95;;;12.00;;
39344;SDS011;25061;51.954;6.996;2023-05-07T09:52:01;15.95;;;11.48;;
39344;SDS011;25061;51.954;6.996;2023-05-07T09:54:30;17.27;;;11.73;;
39344;SDS011;25061;51.954;6.996;2023-05-07T09:56:57;16.25;;;11.10;;
39344;SDS011;25061;51.954;6.996;2023-05-07T09:59:24;17.48;;;12.00;;
39344;SDS011;25061;51.954;6.996;2023-05-07T10:01:51;16.58;;;11.90;;
39344;SDS011;25061;51.954;6.996;2023-05-07T10:04:21;18.55;;;12.80;;
39344;SDS011;25061;51.954;6.996;2023-05-07T10:06:48;17.58;;;12.13;;
39344;SDS011;25061;51.954;6.996;2023-05-07T10:09:14;17.27;;;12.48;;
39344;SDS011;25061;51.954;6.996;2023-05-07T10:11:40;17.55;;;12.02;;
39344;SDS011;25061;51.954;6.996;2023-05-07T10:14:06;17.73;;;12.63;;
39344;SDS011;25061;51.954;6.996;2023-05-07T10:16:34;16.55;;;11.52;;
39344;SDS011;25061;51.954;6.996;2023-05-07T10:19:04;17.13;;;11.55;;
39344;SDS011;25061;51.954;6.996;2023-05-07T10:21:33;17.23;;;11.63;;
39344;SDS011;25061;51.954;6.996;2023-05-07T10:24:22;15.90;;;11.57;;
39344;SDS011;25061;51.954;6.996;2023-05-07T10:26:52;16.92;;;11.27;;
39344;SDS011;25061;51.954;6.996;2023-05-07T10:34:44;16.73;;;11.53;;
39344;SDS011;25061;51.954;6.996;2023-05-07T10:37:13;16.98;;;11.75;;
39344;SDS011;25061;51.954;6.996;2023-05-07T10:39:40;17.92;;;11.70;;
39344;SDS011;25061;51.954;6.996;2023-05-07T10:42:09;16.50;;;11.25;;
39344;SDS011;25061;51.954;6.996;2023-05-07T10:44:36;13.93;;;10.23;;
39344;SDS011;25061;51.954;6.996;2023-05-07T10:47:09;15.82;;;11.00;;
39344;SDS011;25061;51.954;6.996;2023-05-07T10:50:21;18.98;;;12.65;;
39344;SDS011;25061;51.954;6.996;2023-05-07T10:52:30;16.98;;;11.65;;
39344;SDS011;25061;51.954;6.996;2023-05-07T10:57:42;16.33;;;11.88;;
39344;SDS011;25061;51.954;6.996;2023-05-07T11:05:31;16.83;;;11.02;;
39344;SDS011;25061;51.954;6.996;2023-05-07T11:07:58;18.92;;;12.00;;
39344;SDS011;25061;51.954;6.996;2023-05-07T11:13:13;16.85;;;10.73;;
39344;SDS011;25061;51.954;6.996;2023-05-07T11:15:41;17.60;;;10.82;;
39344;SDS011;25061;51.954;6.996;2023-05-07T11:18:09;15.60;;;10.90;;
39344;SDS011;25061;51.954;6.996;2023-05-07T11:26:12;16.38;;;10.70;;
39344;SDS011;25061;51.954;6.996;2023-05-07T11:28:41;14.65;;;10.80;;
39344;SDS011;25061;51.954;6.996;2023-05-07T11:31:08;16.20;;;11.27;;
39344;SDS011;25061;51.954;6.996;2023-05-07T11:33:35;16.38;;;10.52;;
39344;SDS011;25061;51.954;6.996;2023-05-07T11:36:03;19.65;;;11.60;;
39344;SDS011;25061;51.954;6.996;2023-05-07T11:38:29;16.38;;;11.00;;
39344;SDS011;25061;51.954;6.996;2023-05-07T11:40:57;15.32;;;9.98;;
39344;SDS011;25061;51.954;6.996;2023-05-07T11:43:25;13.88;;;9.07;;
39344;SDS011;25061;51.954;6.996;2023-05-07T11:45:51;14.30;;;8.90;;
39344;SDS011;25061;51.954;6.996;2023-05-07T11:48:17;14.90;;;9.15;;
39344;SDS011;25061;51.954;6.996;2023-05-07T11:50:53;15.35;;;10.68;;
39344;SDS011;25061;51.954;6.996;2023-05-07T11:53:27;13.90;;;9.90;;
39344;SDS011;25061;51.954;6.996;2023-05-07T11:56:00;13.43;;;8.82;;
39344;SDS011;25061;51.954;6.996;2023-05-07T11:58:31;15.45;;;8.95;;
39344;SDS011;25061;51.954;6.996;2023-05-07T12:00:56;13.38;;;8.38;;
39344;SDS011;25061;51.954;6.996;2023-05-07T12:03:22;12.70;;;7.60;;
39344;SDS011;25061;51.954;6.996;2023-05-07T12:05:48;12.88;;;8.05;;
39344;SDS011;25061;51.954;6.996;2023-05-07T12:08:17;13.32;;;7.57;;
39344;SDS011;25061;51.954;6.996;2023-05-07T12:10:44;12.52;;;7.57;;
39344;SDS011;25061;51.954;6.996;2023-05-07T12:15:53;11.20;;;7.40;;
39344;SDS011;25061;51.954;6.996;2023-05-07T12:18:20;12.20;;;7.47;;
39344;SDS011;25061;51.954;6.996;2023-05-07T12:20:47;14.18;;;8.85;;
39344;SDS011;25061;51.954;6.996;2023-05-07T12:23:15;12.93;;;8.48;;
39344;SDS011;25061;51.954;6.996;2023-05-07T12:25:41;13.95;;;7.90;;
39344;SDS011;25061;51.954;6.996;2023-05-07T12:28:15;11.93;;;6.97;;
39344;SDS011;25061;51.954;6.996;2023-05-07T12:30:43;11.73;;;7.33;;
39344;SDS011;25061;51.954;6.996;2023-05-07T12:33:11;13.27;;;7.90;;
39344;SDS011;25061;51.954;6.996;2023-05-07T12:35:39;11.60;;;7.95;;
39344;SDS011;25061;51.954;6.996;2023-05-07T12:38:11;12.82;;;7.68;;
39344;SDS011;25061;51.954;6.996;2023-05-07T12:40:53;12.35;;;7.40;;
39344;SDS011;25061;51.954;6.996;2023-05-07T12:45:46;10.55;;;6.53;;
39344;SDS011;25061;51.954;6.996;2023-05-07T12:48:14;11.38;;;6.47;;
39344;SDS011;25061;51.954;6.996;2023-05-07T12:50:40;11.80;;;6.68;;
39344;SDS011;25061;51.954;6.996;2023-05-07T12:53:07;10.43;;;6.72;;
39344;SDS011;25061;51.954;6.996;2023-05-07T12:55:47;10.73;;;6.18;;
39344;SDS011;25061;51.954;6.996;2023-05-07T12:58:17;9.98;;;5.65;;
39344;SDS011;25061;51.954;6.996;2023-05-07T13:00:48;10.77;;;6.57;;
39344;SDS011;25061;51.954;6.996;2023-05-07T13:03:28;9.95;;;5.97;;
39344;SDS011;25061;51.954;6.996;2023-05-07T13:05:59;11.75;;;5.60;;
39344;SDS011;25061;51.954;6.996;2023-05-07T13:08:28;8.98;;;4.88;;
39344;SDS011;25061;51.954;6.996;2023-05-07T13:10:56;8.98;;;5.10;;
39344;SDS011;25061;51.954;6.996;2023-05-07T13:13:23;9.25;;;5.18;;
39344;SDS011;25061;51.954;6.996;2023-05-07T13:15:48;8.98;;;4.65;;
39344;SDS011;25061;51.954;6.996;2023-05-07T13:18:14;9.88;;;4.47;;
39344;SDS011;25061;51.954;6.996;2023-05-07T13:20:40;11.52;;;5.95;;
39344;SDS011;25061;51.954;6.996;2023-05-07T13:23:05;10.32;;;4.85;;
39344;SDS011;25061;51.954;6.996;2023-05-07T13:25:31;8.55;;;4.55;;
39344;SDS011;25061;51.954;6.996;2023-05-07T13:27:57;8.82;;;4.45;;
39344;SDS011;25061;51.954;6.996;2023-05-07T13:30:22;8.18;;;3.53;;
39344;SDS011;25061;51.954;6.996;2023-05-07T13:32:50;8.68;;;3.83;;
39344;SDS011;25061;51.954;6.996;2023-05-07T13:35:17;8.13;;;3.53;;
39344;SDS011;25061;51.954;6.996;2023-05-07T13:37:42;9.80;;;3.95;;
39344;SDS011;25061;51.954;6.996;2023-05-07T13:40:08;9.60;;;5.13;;
39344;SDS011;25061;51.954;6.996;2023-05-07T13:42:34;10.63;;;5.68;;
39344;SDS011;25061;51.954;6.996;2023-05-07T13:45:00;7.75;;;4.05;;
39344;SDS011;25061;51.954;6.996;2023-05-07T13:47:28;8.82;;;4.43;;
39344;SDS011;25061;51.954;6.996;2023-05-07T13:49:53;9.50;;;4.10;;
39344;SDS011;25061;51.954;6.996;2023-05-07T13:52:19;8.52;;;3.67;;
39344;SDS011;25061;51.954;6.996;2023-05-07T13:54:45;9.10;;;4.28;;
39344;SDS011;25061;51.954;6.996;2023-05-07T13:57:10;8.25;;;4.72;;
39344;SDS011;25061;51.954;6.996;2023-05-07T13:59:36;10.02;;;4.70;;
39344;SDS011;25061;51.954;6.996;2023-05-07T14:02:02;12.60;;;4.78;;
39344;SDS011;25061;51.954;6.996;2023-05-07T14:04:27;8.55;;;4.30;;
39344;SDS011;25061;51.954;6.996;2023-05-07T14:06:53;8.20;;;4.50;;
39344;SDS011;25061;51.954;6.996;2023-05-07T14:09:19;8.70;;;4.72;;
39344;SDS011;25061;51.954;6.996;2023-05-07T14:11:44;8.68;;;3.97;;
39344;SDS011;25061;51.954;6.996;2023-05-07T14:14:12;8.50;;;4.55;;
39344;SDS011;25061;51.954;6.996;2023-05-07T14:16:38;7.72;;;4.40;;
39344;SDS011;25061;51.954;6.996;2023-05-07T14:19:05;9.50;;;4.25;;
39344;SDS011;25061;51.954;6.996;2023-05-07T14:21:31;7.30;;;3.75;;
39344;SDS011;25061;51.954;6.996;2023-05-07T14:23:57;8.43;;;4.40;;
39344;SDS011;25061;51.954;6.996;2023-05-07T14:26:22;7.93;;;3.90;;
39344;SDS011;25061;51.954;6.996;2023-05-07T14:28:48;8.77;;;4.00;;
39344;SDS011;25061;51.954;6.996;2023-05-07T14:31:14;11.80;;;3.60;;
39344;SDS011;25061;51.954;6.996;2023-05-07T14:33:40;8.52;;;4.07;;
39344;SDS011;25061;51.954;6.996;2023-05-07T14:36:05;7.97;;;4.07;;
39344;SDS011;25061;51.954;6.996;2023-05-07T14:38:31;10.30;;;4.38;;
39344;SDS011;25061;51.954;6.996;2023-05-07T14:40:58;8.45;;;3.42;;
39344;SDS011;25061;51.954;6.996;2023-05-07T14:43:23;6.90;;;3.38;;
39344;SDS011;25061;51.954;6.996;2023-05-07T14:45:49;8.95;;;3.95;;
39344;SDS011;25061;51.954;6.996;2023-05-07T14:48:15;7.78;;;3.67;;
39344;SDS011;25061;51.954;6.996;2023-05-07T14:50:41;7.13;;;3.60;;
39344;SDS011;25061;51.954;6.996;2023-05-07T14:53:07;7.30;;;3.65;;
39344;SDS011;25061;51.954;6.996;2023-05-07T14:55:34;7.25;;;3.80;;
39344;SDS011;25061;51.954;6.996;2023-05-07T14:58:00;7.07;;;3.55;;
39344;SDS011;25061;51.954;6.996;2023-05-07T15:00:26;6.97;;;2.92;;
39344;SDS011;25061;51.954;6.996;2023-05-07T15:02:54;7.28;;;3.58;;
39344;SDS011;25061;51.954;6.996;2023-05-07T15:05:28;8.52;;;3.83;;
39344;SDS011;25061;51.954;6.996;2023-05-07T15:07:54;7.75;;;3.60;;
39344;SDS011;25061;51.954;6.996;2023-05-07T15:10:20;8.23;;;3.70;;
39344;SDS011;25061;51.954;6.996;2023-05-07T15:12:46;10.68;;;3.92;;
39344;SDS011;25061;51.954;6.996;2023-05-07T15:15:12;8.10;;;4.28;;
39344;SDS011;25061;51.954;6.996;2023-05-07T15:17:37;9.18;;;4.68;;
39344;SDS011;25061;51.954;6.996;2023-05-07T15:20:03;9.85;;;5.45;;
39344;SDS011;25061;51.954;6.996;2023-05-07T15:22:30;8.60;;;4.93;;
39344;SDS011;25061;51.954;6.996;2023-05-07T15:24:56;8.65;;;4.97;;
39344;SDS011;25061;51.954;6.996;2023-05-07T15:27:23;9.15;;;5.22;;
39344;SDS011;25061;51.954;6.996;2023-05-07T15:29:49;9.85;;;5.28;;
39344;SDS011;25061;51.954;6.996;2023-05-07T15:32:15;9.65;;;5.95;;
39344;SDS011;25061;51.954;6.996;2023-05-07T15:34:40;9.57;;;5.82;;
39344;SDS011;25061;51.954;6.996;2023-05-07T15:37:06;10.27;;;5.88;;
39344;SDS011;25061;51.954;6.996;2023-05-07T15:39:31;10.10;;;5.50;;
39344;SDS011;25061;51.954;6.996;2023-05-07T15:41:57;9.00;;;5.35;;
39344;SDS011;25061;51.954;6.996;2023-05-07T15:44:23;9.00;;;5.00;;
39344;SDS011;25061;51.954;6.996;2023-05-07T15:46:52;9.73;;;5.57;;
39344;SDS011;25061;51.954;6.996;2023-05-07T15:49:18;9.35;;;5.40;;
39344;SDS011;25061;51.954;6.996;2023-05-07T15:51:43;10.23;;;5.80;;
39344;SDS011;25061;51.954;6.996;2023-05-07T15:54:09;9.50;;;5.90;;
39344;SDS011;25061;51.954;6.996;2023-05-07T15:56:35;9.98;;;5.80;;
39344;SDS011;25061;51.954;6.996;2023-05-07T15:59:00;11.73;;;6.35;;
39344;SDS011;25061;51.954;6.996;2023-05-07T16:01:26;10.05;;;6.78;;
39344;SDS011;25061;51.954;6.996;2023-05-07T16:03:52;13.02;;;6.88;;
39344;SDS011;25061;51.954;6.996;2023-05-07T16:06:18;10.25;;;6.30;;
39344;SDS011;25061;51.954;6.996;2023-05-07T16:08:43;10.20;;;6.20;;
39344;SDS011;25061;51.954;6.996;2023-05-07T16:11:09;9.98;;;6.30;;
39344;SDS011;25061;51.954;6.996;2023-05-07T16:13:36;11.63;;;6.38;;
39344;SDS011;25061;51.954;6.996;2023-05-07T16:16:02;11.43;;;6.57;;
39344;SDS011;25061;51.954;6.996;2023-05-07T16:18:28;11.57;;;6.80;;
39344;SDS011;25061;51.954;6.996;2023-05-07T16:20:53;11.20;;;6.88;;
39344;SDS011;25061;51.954;6.996;2023-05-07T16:23:19;10.63;;;6.65;;
39344;SDS011;25061;51.954;6.996;2023-05-07T16:25:45;12.85;;;6.82;;
39344;SDS011;25061;51.954;6.996;2023-05-07T16:28:11;11.32;;;7.22;;
39344;SDS011;25061;51.954;6.996;2023-05-07T16:30:36;12.00;;;7.07;;
39344;SDS011;25061;51.954;6.996;2023-05-07T16:33:02;12.80;;;7.40;;
39344;SDS011;25061;51.954;6.996;2023-05-07T16:35:27;10.05;;;6.55;;
39344;SDS011;25061;51.954;6.996;2023-05-07T16:37:53;11.82;;;7.25;;
39344;SDS011;25061;51.954;6.996;2023-05-07T16:40:19;12.85;;;6.72;;
39344;SDS011;25061;51.954;6.996;2023-05-07T16:42:45;11.00;;;6.88;;
39344;SDS011;25061;51.954;6.996;2023-05-07T16:45:10;10.98;;;7.30;;
39344;SDS011;25061;51.954;6.996;2023-05-07T16:47:36;11.73;;;7.15;;
39344;SDS011;25061;51.954;6.996;2023-05-07T16:50:01;11.68;;;7.28;;
39344;SDS011;25061;51.954;6.996;2023-05-07T16:52:29;13.07;;;7.43;;
39344;SDS011;25061;51.954;6.996;2023-05-07T16:54:56;10.70;;;6.63;;
39344;SDS011;25061;51.954;6.996;2023-05-07T16:57:28;10.15;;;6.40;;
39344;SDS011;25061;51.954;6.996;2023-05-07T16:59:54;14.18;;;7.57;;
39344;SDS011;25061;51.954;6.996;2023-05-07T17:02:21;10.15;;;6.47;;
39344;SDS011;25061;51.954;6.996;2023-05-07T17:04:46;11.57;;;7.07;;
39344;SDS011;25061;51.954;6.996;2023-05-07T17:07:12;11.75;;;7.32;;
39344;SDS011;25061;51.954;6.996;2023-05-07T17:09:39;10.80;;;6.88;;
39344;SDS011;25061;51.954;6.996;2023-05-07T17:12:05;10.82;;;6.85;;
39344;SDS011;25061;51.954;6.996;2023-05-07T17:14:31;11.88;;;7.25;;
39344;SDS011;25061;51.954;6.996;2023-05-07T17:16:56;11.48;;;7.20;;
39344;SDS011;25061;51.954;6.996;2023-05-07T17:19:23;11.10;;;6.57;;
39344;SDS011;25061;51.954;6.996;2023-05-07T17:21:49;12.30;;;6.63;;
39344;SDS011;25061;51.954;6.996;2023-05-07T17:24:14;11.75;;;6.75;;
39344;SDS011;25061;51.954;6.996;2023-05-07T17:26:41;12.68;;;6.53;;
39344;SDS011;25061;51.954;6.996;2023-05-07T17:29:07;11.57;;;6.53;;
39344;SDS011;25061;51.954;6.996;2023-05-07T17:31:33;10.85;;;6.50;;
39344;SDS011;25061;51.954;6.996;2023-05-07T17:33:59;9.43;;;6.05;;
39344;SDS011;25061;51.954;6.996;2023-05-07T17:36:25;11.43;;;6.50;;
39344;SDS011;25061;51.954;6.996;2023-05-07T17:38:50;10.70;;;6.65;;
39344;SDS011;25061;51.954;6.996;2023-05-07T17:41:16;11.50;;;6.53;;
39344;SDS011;25061;51.954;6.996;2023-05-07T17:43:42;10.45;;;6.30;;
39344;SDS011;25061;51.954;6.996;2023-05-07T17:46:08;10.25;;;6.20;;
39344;SDS011;25061;51.954;6.996;2023-05-07T17:48:34;9.98;;;5.70;;
39344;SDS011;25061;51.954;6.996;2023-05-07T17:51:00;10.85;;;6.20;;
39344;SDS011;25061;51.954;6.996;2023-05-07T17:53:27;9.65;;;5.80;;
39344;SDS011;25061;51.954;6.996;2023-05-07T17:55:52;11.05;;;5.60;;
39344;SDS011;25061;51.954;6.996;2023-05-07T17:58:18;11.65;;;6.13;;
39344;SDS011;25061;51.954;6.996;2023-05-07T18:00:43;9.75;;;5.38;;
39344;SDS011;25061;51.954;6.996;2023-05-07T18:03:09;9.82;;;5.63;;
39344;SDS011;25061;51.954;6.996;2023-05-07T18:05:35;8.75;;;5.45;;
39344;SDS011;25061;51.954;6.996;2023-05-07T18:08:01;11.10;;;5.68;;
39344;SDS011;25061;51.954;6.996;2023-05-07T18:10:27;9.20;;;5.18;;
39344;SDS011;25061;51.954;6.996;2023-05-07T18:12:53;10.40;;;5.60;;
39344;SDS011;25061;51.954;6.996;2023-05-07T18:15:18;9.02;;;5.35;;
39344;SDS011;25061;51.954;6.996;2023-05-07T18:17:44;10.52;;;5.50;;
39344;SDS011;25061;51.954;6.996;2023-05-07T18:20:10;8.50;;;5.18;;
39344;SDS011;25061;51.954;6.996;2023-05-07T18:22:36;8.68;;;5.40;;
39344;SDS011;25061;51.954;6.996;2023-05-07T18:25:02;8.88;;;5.47;;
39344;SDS011;25061;51.954;6.996;2023-05-07T18:27:28;9.02;;;5.15;;
39344;SDS011;25061;51.954;6.996;2023-05-07T18:29:54;8.38;;;5.10;;
39344;SDS011;25061;51.954;6.996;2023-05-07T18:32:20;10.43;;;5.40;;
39344;SDS011;25061;51.954;6.996;2023-05-07T18:34:46;8.32;;;4.80;;
39344;SDS011;25061;51.954;6.996;2023-05-07T18:37:11;9.45;;;5.10;;
39344;SDS011;25061;51.954;6.996;2023-05-07T18:39:37;9.35;;;5.47;;
39344;SDS011;25061;51.954;6.996;2023-05-07T18:42:03;10.43;;;5.55;;
39344;SDS011;25061;51.954;6.996;2023-05-07T18:44:29;9.38;;;4.95;;
39344;SDS011;25061;51.954;6.996;2023-05-07T18:46:55;9.52;;;4.90;;
39344;SDS011;25061;51.954;6.996;2023-05-07T18:49:22;8.93;;;5.00;;
39344;SDS011;25061;51.954;6.996;2023-05-07T18:51:48;9.18;;;5.38;;
39344;SDS011;25061;51.954;6.996;2023-05-07T18:54:14;9.73;;;5.30;;
39344;SDS011;25061;51.954;6.996;2023-05-07T18:56:40;8.73;;;5.10;;
39344;SDS011;25061;51.954;6.996;2023-05-07T18:59:05;11.63;;;5.85;;
39344;SDS011;25061;51.954;6.996;2023-05-07T19:01:31;10.27;;;5.72;;
39344;SDS011;25061;51.954;6.996;2023-05-07T19:03:57;9.30;;;5.68;;
39344;SDS011;25061;51.954;6.996;2023-05-07T19:06:22;9.82;;;5.10;;
39344;SDS011;25061;51.954;6.996;2023-05-07T19:08:49;10.55;;;5.53;;
39344;SDS011;25061;51.954;6.996;2023-05-07T19:11:15;9.85;;;5.75;;
39344;SDS011;25061;51.954;6.996;2023-05-07T19:13:42;10.48;;;6.05;;
39344;SDS011;25061;51.954;6.996;2023-05-07T19:16:07;9.60;;;5.90;;
39344;SDS011;25061;51.954;6.996;2023-05-07T19:18:37;10.38;;;5.90;;
39344;SDS011;25061;51.954;6.996;2023-05-07T19:21:04;10.77;;;6.38;;
39344;SDS011;25061;51.954;6.996;2023-05-07T19:23:30;9.73;;;5.93;;
39344;SDS011;25061;51.954;6.996;2023-05-07T19:25:56;10.23;;;6.00;;
39344;SDS011;25061;51.954;6.996;2023-05-07T19:28:22;10.73;;;6.30;;
39344;SDS011;25061;51.954;6.996;2023-05-07T19:30:49;10.73;;;6.15;;
39344;SDS011;25061;51.954;6.996;2023-05-07T19:33:16;10.23;;;6.13;;
39344;SDS011;25061;51.954;6.996;2023-05-07T19:35:42;10.02;;;6.15;;
39344;SDS011;25061;51.954;6.996;2023-05-07T19:38:08;11.73;;;6.90;;
39344;SDS011;25061;51.954;6.996;2023-05-07T19:40:34;10.45;;;6.40;;
39344;SDS011;25061;51.954;6.996;2023-05-07T19:43:00;10.02;;;6.07;;
39344;SDS011;25061;51.954;6.996;2023-05-07T19:45:26;10.15;;;6.40;;
39344;SDS011;25061;51.954;6.996;2023-05-07T19:47:51;11.60;;;6.35;;
39344;SDS011;25061;51.954;6.996;2023-05-07T19:50:17;9.73;;;6.18;;
39344;SDS011;25061;51.954;6.996;2023-05-07T19:52:42;10.68;;;6.90;;
39344;SDS011;25061;51.954;6.996;2023-05-07T19:55:08;11.00;;;7.20;;
39344;SDS011;25061;51.954;6.996;2023-05-07T19:57:34;10.68;;;6.70;;
39344;SDS011;25061;51.954;6.996;2023-05-07T20:00:00;11.95;;;7.18;;
39344;SDS011;25061;51.954;6.996;2023-05-07T20:02:25;10.88;;;6.72;;
39344;SDS011;25061;51.954;6.996;2023-05-07T20:04:51;12.18;;;7.38;;
39344;SDS011;25061;51.954;6.996;2023-05-07T20:07:19;11.75;;;6.85;;
39344;SDS011;25061;51.954;6.996;2023-05-07T20:09:45;17.02;;;7.50;;
39344;SDS011;25061;51.954;6.996;2023-05-07T20:12:11;10.60;;;6.50;;
39344;SDS011;25061;51.954;6.996;2023-05-07T20:14:36;12.43;;;7.13;;
39344;SDS011;25061;51.954;6.996;2023-05-07T20:17:02;12.23;;;7.15;;
39344;SDS011;25061;51.954;6.996;2023-05-07T20:19:28;10.93;;;7.10;;
39344;SDS011;25061;51.954;6.996;2023-05-07T20:21:53;11.15;;;7.85;;
39344;SDS011;25061;51.954;6.996;2023-05-07T20:24:19;12.45;;;7.20;;
39344;SDS011;25061;51.954;6.996;2023-05-07T20:26:45;10.82;;;6.90;;